sensor_id;sensor_type;location;lat;lon;timestamp;P1;durP1;ratioP1;P2;durP2;ratioP2
41219;SDS011;26951;47.338;9.196;2024-02-26T00:01:16;0.80;;;0.80;;
41219;SDS011;26951;47.338;9.196;2024-02-26T00:04:00;0.70;;;0.70;;
41219;SDS011;26951;47.338;9.196;2024-02-26T00:06:45;0.65;;;0.65;;
41219;SDS011;26951;47.338;9.196;2024-02-26T00:09:29;1.65;;;0.50;;
41219;SDS011;26951;47.338;9.196;2024-02-26T00:12:13;0.50;;;0.50;;
41219;SDS011;26951;47.338;9.196;2024-02-26T00:14:58;0.90;;;0.70;;
41219;SDS011;26951;47.338;9.196;2024-02-26T00:17:42;0.70;;;0.70;;
41219;SDS011;26951;47.338;9.196;2024-02-26T00:20:26;1.17;;;0.63;;
41219;SDS011;26951;47.338;9.196;2024-02-26T00:23:10;0.50;;;0.50;;
41219;SDS011;26951;47.338;9.196;2024-02-26T00:25:55;1.08;;;0.60;;
41219;SDS011;26951;47.338;9.196;2024-02-26T00:28:39;0.75;;;0.75;;
41219;SDS011;26951;47.338;9.196;2024-02-26T00:31:23;0.50;;;0.50;;
41219;SDS011;26951;47.338;9.196;2024-02-26T00:34:07;1.67;;;0.50;;
41219;SDS011;26951;47.338;9.196;2024-02-26T00:36:51;0.60;;;0.60;;
41219;SDS011;26951;47.338;9.196;2024-02-26T00:39:35;0.40;;;0.40;;
41219;SDS011;26951;47.338;9.196;2024-02-26T00:42:19;0.50;;;0.50;;
41219;SDS011;26951;47.338;9.196;2024-02-26T00:45:03;0.40;;;0.32;;
41219;SDS011;26951;47.338;9.196;2024-02-26T00:47:48;0.53;;;0.53;;
41219;SDS011;26951;47.338;9.196;2024-02-26T00:50:36;0.43;;;0.43;;
41219;SDS011;26951;47.338;9.196;2024-02-26T00:53:20;0.47;;;0.47;;
41219;SDS011;26951;47.338;9.196;2024-02-26T00:56:04;0.73;;;0.50;;
41219;SDS011;26951;47.338;9.196;2024-02-26T00:58:48;0.80;;;0.65;;
41219;SDS011;26951;47.338;9.196;2024-02-26T01:01:32;0.52;;;0.52;;
41219;SDS011;26951;47.338;9.196;2024-02-26T01:04:17;0.40;;;0.40;;
41219;SDS011;26951;47.338;9.196;2024-02-26T01:07:01;0.60;;;0.60;;
41219;SDS011;26951;47.338;9.196;2024-02-26T01:09:45;0.43;;;0.43;;
41219;SDS011;26951;47.338;9.196;2024-02-26T01:12:29;0.85;;;0.70;;
41219;SDS011;26951;47.338;9.196;2024-02-26T01:15:13;0.45;;;0.45;;
41219;SDS011;26951;47.338;9.196;2024-02-26T01:17:57;0.50;;;0.50;;
41219;SDS011;26951;47.338;9.196;2024-02-26T01:20:42;0.50;;;0.50;;
41219;SDS011;26951;47.338;9.196;2024-02-26T01:23:25;0.50;;;0.50;;
41219;SDS011;26951;47.338;9.196;2024-02-26T01:26:10;0.57;;;0.50;;
41219;SDS011;26951;47.338;9.196;2024-02-26T01:28:55;0.50;;;0.50;;
41219;SDS011;26951;47.338;9.196;2024-02-26T01:31:39;0.57;;;0.50;;
41219;SDS011;26951;47.338;9.196;2024-02-26T01:34:23;0.50;;;0.50;;
41219;SDS011;26951;47.338;9.196;2024-02-26T01:37:07;0.40;;;0.40;;
41219;SDS011;26951;47.338;9.196;2024-02-26T01:39:51;0.52;;;0.40;;
41219;SDS011;26951;47.338;9.196;2024-02-26T01:42:38;0.30;;;0.30;;
41219;SDS011;26951;47.338;9.196;2024-02-26T01:45:22;0.77;;;0.77;;
41219;SDS011;26951;47.338;9.196;2024-02-26T01:48:08;0.70;;;0.50;;
41219;SDS011;26951;47.338;9.196;2024-02-26T01:50:54;0.68;;;0.60;;
41219;SDS011;26951;47.338;9.196;2024-02-26T01:53:38;0.40;;;0.40;;
41219;SDS011;26951;47.338;9.196;2024-02-26T01:56:22;0.40;;;0.40;;
41219;SDS011;26951;47.338;9.196;2024-02-26T01:59:11;0.50;;;0.50;;
41219;SDS011;26951;47.338;9.196;2024-02-26T02:04:24;0.43;;;0.43;;
41219;SDS011;26951;47.338;9.196;2024-02-26T02:07:08;0.60;;;0.30;;
41219;SDS011;26951;47.338;9.196;2024-02-26T02:09:53;0.50;;;0.50;;
41219;SDS011;26951;47.338;9.196;2024-02-26T02:12:37;0.43;;;0.43;;
41219;SDS011;26951;47.338;9.196;2024-02-26T02:15:23;0.60;;;0.50;;
41219;SDS011;26951;47.338;9.196;2024-02-26T02:18:07;0.40;;;0.40;;
41219;SDS011;26951;47.338;9.196;2024-02-26T02:20:52;1.38;;;0.73;;
41219;SDS011;26951;47.338;9.196;2024-02-26T02:26:21;1.35;;;0.45;;
41219;SDS011;26951;47.338;9.196;2024-02-26T02:29:06;0.68;;;0.50;;
41219;SDS011;26951;47.338;9.196;2024-02-26T02:31:50;0.50;;;0.50;;
41219;SDS011;26951;47.338;9.196;2024-02-26T02:34:34;0.32;;;0.32;;
41219;SDS011;26951;47.338;9.196;2024-02-26T02:37:19;0.50;;;0.50;;
41219;SDS011;26951;47.338;9.196;2024-02-26T02:40:03;0.40;;;0.40;;
41219;SDS011;26951;47.338;9.196;2024-02-26T02:42:49;0.47;;;0.47;;
41219;SDS011;26951;47.338;9.196;2024-02-26T02:45:33;0.28;;;0.28;;
41219;SDS011;26951;47.338;9.196;2024-02-26T02:48:17;0.50;;;0.50;;
41219;SDS011;26951;47.338;9.196;2024-02-26T02:51:01;0.50;;;0.50;;
41219;SDS011;26951;47.338;9.196;2024-02-26T02:53:45;0.47;;;0.47;;
41219;SDS011;26951;47.338;9.196;2024-02-26T02:56:29;0.50;;;0.50;;
41219;SDS011;26951;47.338;9.196;2024-02-26T02:59:13;0.45;;;0.40;;
41219;SDS011;26951;47.338;9.196;2024-02-26T03:01:58;0.95;;;0.30;;
41219;SDS011;26951;47.338;9.196;2024-02-26T03:04:42;0.40;;;0.40;;
41219;SDS011;26951;47.338;9.196;2024-02-26T03:07:26;0.50;;;0.50;;
41219;SDS011;26951;47.338;9.196;2024-02-26T03:10:10;0.55;;;0.55;;
41219;SDS011;26951;47.338;9.196;2024-02-26T03:12:54;0.77;;;0.68;;
41219;SDS011;26951;47.338;9.196;2024-02-26T03:15:38;1.27;;;1.10;;
41219;SDS011;26951;47.338;9.196;2024-02-26T03:18:23;0.63;;;0.63;;
41219;SDS011;26951;47.338;9.196;2024-02-26T03:21:07;0.82;;;0.80;;
41219;SDS011;26951;47.338;9.196;2024-02-26T03:23:51;1.52;;;0.70;;
41219;SDS011;26951;47.338;9.196;2024-02-26T03:26:35;1.02;;;0.65;;
41219;SDS011;26951;47.338;9.196;2024-02-26T03:29:19;0.55;;;0.55;;
41219;SDS011;26951;47.338;9.196;2024-02-26T03:32:04;1.42;;;0.80;;
41219;SDS011;26951;47.338;9.196;2024-02-26T03:34:49;1.05;;;0.60;;
41219;SDS011;26951;47.338;9.196;2024-02-26T03:37:33;0.63;;;0.63;;
41219;SDS011;26951;47.338;9.196;2024-02-26T03:40:17;1.52;;;0.98;;
41219;SDS011;26951;47.338;9.196;2024-02-26T03:43:03;2.15;;;0.95;;
41219;SDS011;26951;47.338;9.196;2024-02-26T03:45:49;0.63;;;0.60;;
41219;SDS011;26951;47.338;9.196;2024-02-26T03:48:33;0.70;;;0.70;;
41219;SDS011;26951;47.338;9.196;2024-02-26T03:51:18;0.93;;;0.70;;
41219;SDS011;26951;47.338;9.196;2024-02-26T03:54:02;1.08;;;0.82;;
41219;SDS011;26951;47.338;9.196;2024-02-26T03:56:46;0.70;;;0.70;;
41219;SDS011;26951;47.338;9.196;2024-02-26T03:59:30;0.73;;;0.73;;
41219;SDS011;26951;47.338;9.196;2024-02-26T04:02:14;0.75;;;0.70;;
41219;SDS011;26951;47.338;9.196;2024-02-26T04:05:00;0.70;;;0.70;;
41219;SDS011;26951;47.338;9.196;2024-02-26T04:07:44;0.63;;;0.55;;
41219;SDS011;26951;47.338;9.196;2024-02-26T04:10:28;0.70;;;0.68;;
41219;SDS011;26951;47.338;9.196;2024-02-26T04:13:12;0.80;;;0.80;;
41219;SDS011;26951;47.338;9.196;2024-02-26T04:15:56;1.02;;;0.93;;
41219;SDS011;26951;47.338;9.196;2024-02-26T04:18:42;0.90;;;0.90;;
41219;SDS011;26951;47.338;9.196;2024-02-26T04:21:26;0.80;;;0.70;;
41219;SDS011;26951;47.338;9.196;2024-02-26T04:24:10;0.60;;;0.60;;
41219;SDS011;26951;47.338;9.196;2024-02-26T04:26:54;0.80;;;0.77;;
41219;SDS011;26951;47.338;9.196;2024-02-26T04:29:38;0.90;;;0.77;;
41219;SDS011;26951;47.338;9.196;2024-02-26T04:32:22;1.15;;;0.70;;
41219;SDS011;26951;47.338;9.196;2024-02-26T04:35:06;1.75;;;0.88;;
41219;SDS011;26951;47.338;9.196;2024-02-26T04:37:50;0.60;;;0.60;;
41219;SDS011;26951;47.338;9.196;2024-02-26T04:40:34;0.47;;;0.47;;
41219;SDS011;26951;47.338;9.196;2024-02-26T04:43:19;1.58;;;0.80;;
41219;SDS011;26951;47.338;9.196;2024-02-26T04:46:04;0.70;;;0.70;;
41219;SDS011;26951;47.338;9.196;2024-02-26T04:48:48;0.82;;;0.82;;
41219;SDS011;26951;47.338;9.196;2024-02-26T04:51:32;0.82;;;0.82;;
41219;SDS011;26951;47.338;9.196;2024-02-26T04:54:16;0.82;;;0.80;;
41219;SDS011;26951;47.338;9.196;2024-02-26T04:57:00;0.70;;;0.70;;
41219;SDS011;26951;47.338;9.196;2024-02-26T04:59:44;0.85;;;0.85;;
41219;SDS011;26951;47.338;9.196;2024-02-26T05:02:29;1.00;;;0.88;;
41219;SDS011;26951;47.338;9.196;2024-02-26T05:05:15;1.20;;;1.10;;
41219;SDS011;26951;47.338;9.196;2024-02-26T05:08:00;1.10;;;1.00;;
41219;SDS011;26951;47.338;9.196;2024-02-26T05:10:46;1.15;;;1.05;;
41219;SDS011;26951;47.338;9.196;2024-02-26T05:13:30;1.17;;;1.00;;
41219;SDS011;26951;47.338;9.196;2024-02-26T05:16:15;1.10;;;1.00;;
41219;SDS011;26951;47.338;9.196;2024-02-26T05:18:59;1.10;;;1.00;;
41219;SDS011;26951;47.338;9.196;2024-02-26T05:21:43;0.93;;;0.90;;
41219;SDS011;26951;47.338;9.196;2024-02-26T05:24:27;1.73;;;1.20;;
41219;SDS011;26951;47.338;9.196;2024-02-26T05:27:12;1.02;;;0.95;;
41219;SDS011;26951;47.338;9.196;2024-02-26T05:29:56;1.02;;;0.93;;
41219;SDS011;26951;47.338;9.196;2024-02-26T05:32:40;1.13;;;0.95;;
41219;SDS011;26951;47.338;9.196;2024-02-26T05:35:25;0.80;;;0.80;;
41219;SDS011;26951;47.338;9.196;2024-02-26T05:38:09;1.23;;;1.13;;
41219;SDS011;26951;47.338;9.196;2024-02-26T05:40:53;0.80;;;0.80;;
41219;SDS011;26951;47.338;9.196;2024-02-26T05:43:38;1.05;;;0.90;;
41219;SDS011;26951;47.338;9.196;2024-02-26T05:46:22;1.13;;;0.90;;
41219;SDS011;26951;47.338;9.196;2024-02-26T05:49:06;1.67;;;1.05;;
41219;SDS011;26951;47.338;9.196;2024-02-26T05:51:50;1.90;;;1.10;;
41219;SDS011;26951;47.338;9.196;2024-02-26T05:54:34;1.30;;;1.20;;
41219;SDS011;26951;47.338;9.196;2024-02-26T05:57:19;1.65;;;1.27;;
41219;SDS011;26951;47.338;9.196;2024-02-26T06:00:03;1.17;;;1.08;;
41219;SDS011;26951;47.338;9.196;2024-02-26T06:02:47;1.63;;;1.40;;
41219;SDS011;26951;47.338;9.196;2024-02-26T06:05:32;1.55;;;1.38;;
41219;SDS011;26951;47.338;9.196;2024-02-26T06:08:16;1.75;;;1.33;;
41219;SDS011;26951;47.338;9.196;2024-02-26T06:11:04;2.08;;;1.30;;
41219;SDS011;26951;47.338;9.196;2024-02-26T06:13:49;1.27;;;1.13;;
41219;SDS011;26951;47.338;9.196;2024-02-26T06:16:33;2.40;;;1.30;;
41219;SDS011;26951;47.338;9.196;2024-02-26T06:19:18;1.75;;;1.40;;
41219;SDS011;26951;47.338;9.196;2024-02-26T06:22:02;3.08;;;1.58;;
41219;SDS011;26951;47.338;9.196;2024-02-26T06:24:46;1.52;;;1.27;;
41219;SDS011;26951;47.338;9.196;2024-02-26T06:27:30;1.67;;;1.58;;
41219;SDS011;26951;47.338;9.196;2024-02-26T06:30:14;1.90;;;1.38;;
41219;SDS011;26951;47.338;9.196;2024-02-26T06:32:58;1.98;;;1.45;;
41219;SDS011;26951;47.338;9.196;2024-02-26T06:35:42;1.42;;;1.30;;
41219;SDS011;26951;47.338;9.196;2024-02-26T06:38:27;1.73;;;1.30;;
41219;SDS011;26951;47.338;9.196;2024-02-26T06:41:11;1.58;;;1.45;;
41219;SDS011;26951;47.338;9.196;2024-02-26T06:43:55;1.75;;;1.58;;
41219;SDS011;26951;47.338;9.196;2024-02-26T06:46:40;2.65;;;1.40;;
41219;SDS011;26951;47.338;9.196;2024-02-26T06:49:24;1.48;;;1.25;;
41219;SDS011;26951;47.338;9.196;2024-02-26T06:52:08;1.60;;;1.50;;
41219;SDS011;26951;47.338;9.196;2024-02-26T06:54:52;1.38;;;1.27;;
41219;SDS011;26951;47.338;9.196;2024-02-26T06:57:37;1.63;;;1.43;;
41219;SDS011;26951;47.338;9.196;2024-02-26T07:00:21;1.95;;;1.67;;
41219;SDS011;26951;47.338;9.196;2024-02-26T07:03:05;1.70;;;1.60;;
41219;SDS011;26951;47.338;9.196;2024-02-26T07:05:49;2.60;;;1.40;;
41219;SDS011;26951;47.338;9.196;2024-02-26T07:08:33;1.60;;;1.50;;
41219;SDS011;26951;47.338;9.196;2024-02-26T07:11:18;1.95;;;1.70;;
41219;SDS011;26951;47.338;9.196;2024-02-26T07:14:03;1.98;;;1.50;;
41219;SDS011;26951;47.338;9.196;2024-02-26T07:16:47;1.70;;;1.40;;
41219;SDS011;26951;47.338;9.196;2024-02-26T07:19:32;2.03;;;1.42;;
41219;SDS011;26951;47.338;9.196;2024-02-26T07:22:16;1.55;;;1.45;;
41219;SDS011;26951;47.338;9.196;2024-02-26T07:25:00;1.73;;;1.35;;
41219;SDS011;26951;47.338;9.196;2024-02-26T07:27:44;1.98;;;1.30;;
41219;SDS011;26951;47.338;9.196;2024-02-26T07:30:28;1.10;;;1.00;;
41219;SDS011;26951;47.338;9.196;2024-02-26T07:33:12;1.42;;;1.33;;
41219;SDS011;26951;47.338;9.196;2024-02-26T07:35:56;1.95;;;1.20;;
41219;SDS011;26951;47.338;9.196;2024-02-26T07:38:41;2.08;;;1.48;;
41219;SDS011;26951;47.338;9.196;2024-02-26T07:41:25;1.90;;;1.38;;
41219;SDS011;26951;47.338;9.196;2024-02-26T07:44:09;0.90;;;0.90;;
41219;SDS011;26951;47.338;9.196;2024-02-26T07:46:53;2.20;;;1.10;;
41219;SDS011;26951;47.338;9.196;2024-02-26T07:49:37;1.25;;;1.13;;
41219;SDS011;26951;47.338;9.196;2024-02-26T07:52:23;2.25;;;1.50;;
41219;SDS011;26951;47.338;9.196;2024-02-26T07:55:07;2.85;;;1.17;;
41219;SDS011;26951;47.338;9.196;2024-02-26T07:57:51;1.83;;;1.33;;
41219;SDS011;26951;47.338;9.196;2024-02-26T08:00:36;1.98;;;1.40;;
41219;SDS011;26951;47.338;9.196;2024-02-26T08:03:20;1.98;;;1.50;;
41219;SDS011;26951;47.338;9.196;2024-02-26T08:06:04;1.85;;;1.42;;
41219;SDS011;26951;47.338;9.196;2024-02-26T08:08:49;2.70;;;1.52;;
41219;SDS011;26951;47.338;9.196;2024-02-26T08:11:33;2.03;;;1.80;;
41219;SDS011;26951;47.338;9.196;2024-02-26T08:14:17;4.28;;;1.30;;
41219;SDS011;26951;47.338;9.196;2024-02-26T08:17:01;3.97;;;1.60;;
41219;SDS011;26951;47.338;9.196;2024-02-26T08:19:45;1.80;;;1.45;;
41219;SDS011;26951;47.338;9.196;2024-02-26T08:22:29;3.25;;;1.83;;
41219;SDS011;26951;47.338;9.196;2024-02-26T08:25:13;1.95;;;1.50;;
41219;SDS011;26951;47.338;9.196;2024-02-26T08:27:57;3.13;;;1.52;;
41219;SDS011;26951;47.338;9.196;2024-02-26T08:30:41;2.00;;;1.33;;
41219;SDS011;26951;47.338;9.196;2024-02-26T08:33:25;1.98;;;1.45;;
41219;SDS011;26951;47.338;9.196;2024-02-26T08:36:09;3.03;;;1.70;;
41219;SDS011;26951;47.338;9.196;2024-02-26T08:38:54;2.05;;;1.60;;
41219;SDS011;26951;47.338;9.196;2024-02-26T08:41:38;1.52;;;1.30;;
41219;SDS011;26951;47.338;9.196;2024-02-26T08:44:23;2.13;;;1.73;;
41219;SDS011;26951;47.338;9.196;2024-02-26T08:47:06;4.15;;;1.55;;
41219;SDS011;26951;47.338;9.196;2024-02-26T08:49:50;3.67;;;1.75;;
41219;SDS011;26951;47.338;9.196;2024-02-26T08:52:34;2.80;;;1.38;;
41219;SDS011;26951;47.338;9.196;2024-02-26T08:55:18;1.27;;;1.13;;
41219;SDS011;26951;47.338;9.196;2024-02-26T08:58:02;2.40;;;1.30;;
41219;SDS011;26951;47.338;9.196;2024-02-26T09:00:47;2.55;;;1.40;;
41219;SDS011;26951;47.338;9.196;2024-02-26T09:03:31;1.70;;;1.35;;
41219;SDS011;26951;47.338;9.196;2024-02-26T09:06:15;3.58;;;1.92;;
41219;SDS011;26951;47.338;9.196;2024-02-26T09:08:59;2.50;;;2.20;;
41219;SDS011;26951;47.338;9.196;2024-02-26T09:11:43;2.83;;;2.03;;
41219;SDS011;26951;47.338;9.196;2024-02-26T09:14:27;3.88;;;1.90;;
41219;SDS011;26951;47.338;9.196;2024-02-26T09:17:11;4.95;;;2.40;;
41219;SDS011;26951;47.338;9.196;2024-02-26T09:19:55;2.40;;;1.83;;
41219;SDS011;26951;47.338;9.196;2024-02-26T09:22:39;3.00;;;2.45;;
41219;SDS011;26951;47.338;9.196;2024-02-26T09:25:43;2.83;;;2.15;;
41219;SDS011;26951;47.338;9.196;2024-02-26T09:28:27;2.83;;;2.10;;
41219;SDS011;26951;47.338;9.196;2024-02-26T09:31:15;6.72;;;3.90;;
41219;SDS011;26951;47.338;9.196;2024-02-26T09:34:01;2.40;;;1.90;;
41219;SDS011;26951;47.338;9.196;2024-02-26T09:36:45;3.10;;;1.98;;
41219;SDS011;26951;47.338;9.196;2024-02-26T09:39:29;3.33;;;2.00;;
41219;SDS011;26951;47.338;9.196;2024-02-26T09:42:13;2.03;;;1.67;;
41219;SDS011;26951;47.338;9.196;2024-02-26T09:44:59;1.90;;;1.35;;
41219;SDS011;26951;47.338;9.196;2024-02-26T09:47:47;1.60;;;1.35;;
41219;SDS011;26951;47.338;9.196;2024-02-26T09:50:32;2.67;;;1.30;;
41219;SDS011;26951;47.338;9.196;2024-02-26T09:53:17;3.28;;;1.50;;
41219;SDS011;26951;47.338;9.196;2024-02-26T09:56:06;2.22;;;1.52;;
41219;SDS011;26951;47.338;9.196;2024-02-26T09:58:50;3.03;;;2.08;;
41219;SDS011;26951;47.338;9.196;2024-02-26T10:01:38;2.40;;;1.80;;
41219;SDS011;26951;47.338;9.196;2024-02-26T10:04:24;1.50;;;1.40;;
41219;SDS011;26951;47.338;9.196;2024-02-26T10:07:10;1.60;;;1.50;;
41219;SDS011;26951;47.338;9.196;2024-02-26T10:09:56;3.72;;;1.60;;
41219;SDS011;26951;47.338;9.196;2024-02-26T10:12:40;2.40;;;1.70;;
41219;SDS011;26951;47.338;9.196;2024-02-26T10:15:24;4.88;;;2.60;;
41219;SDS011;26951;47.338;9.196;2024-02-26T10:18:08;3.40;;;2.00;;
41219;SDS011;26951;47.338;9.196;2024-02-26T10:20:58;3.33;;;2.40;;
41219;SDS011;26951;47.338;9.196;2024-02-26T10:23:45;2.33;;;1.70;;
41219;SDS011;26951;47.338;9.196;2024-02-26T10:26:29;2.28;;;1.50;;
41219;SDS011;26951;47.338;9.196;2024-02-26T10:29:14;1.98;;;1.65;;
41219;SDS011;26951;47.338;9.196;2024-02-26T10:31:58;1.75;;;1.20;;
41219;SDS011;26951;47.338;9.196;2024-02-26T10:34:42;3.90;;;1.27;;
41219;SDS011;26951;47.338;9.196;2024-02-26T10:40:13;1.00;;;0.90;;
41219;SDS011;26951;47.338;9.196;2024-02-26T10:42:58;1.45;;;1.33;;
41219;SDS011;26951;47.338;9.196;2024-02-26T10:45:43;2.03;;;1.38;;
41219;SDS011;26951;47.338;9.196;2024-02-26T10:48:27;2.08;;;1.30;;
41219;SDS011;26951;47.338;9.196;2024-02-26T10:51:11;1.63;;;1.10;;
41219;SDS011;26951;47.338;9.196;2024-02-26T10:53:58;2.22;;;1.30;;
41219;SDS011;26951;47.338;9.196;2024-02-26T10:56:48;1.90;;;1.60;;
41219;SDS011;26951;47.338;9.196;2024-02-26T10:59:34;1.83;;;1.20;;
41219;SDS011;26951;47.338;9.196;2024-02-26T11:05:04;1.55;;;1.30;;
41219;SDS011;26951;47.338;9.196;2024-02-26T11:07:49;1.75;;;1.40;;
41219;SDS011;26951;47.338;9.196;2024-02-26T11:10:35;1.50;;;1.30;;
41219;SDS011;26951;47.338;9.196;2024-02-26T11:13:21;1.67;;;1.58;;
41219;SDS011;26951;47.338;9.196;2024-02-26T11:16:07;2.13;;;1.30;;
41219;SDS011;26951;47.338;9.196;2024-02-26T11:18:52;1.77;;;1.58;;
41219;SDS011;26951;47.338;9.196;2024-02-26T11:21:38;1.65;;;1.40;;
41219;SDS011;26951;47.338;9.196;2024-02-26T11:24:27;1.70;;;1.58;;
41219;SDS011;26951;47.338;9.196;2024-02-26T11:27:11;2.17;;;1.40;;
41219;SDS011;26951;47.338;9.196;2024-02-26T11:29:57;1.77;;;1.45;;
41219;SDS011;26951;47.338;9.196;2024-02-26T11:32:46;2.55;;;1.77;;
41219;SDS011;26951;47.338;9.196;2024-02-26T11:35:30;1.50;;;1.30;;
41219;SDS011;26951;47.338;9.196;2024-02-26T11:38:24;2.35;;;1.42;;
41219;SDS011;26951;47.338;9.196;2024-02-26T11:41:10;1.43;;;1.33;;
41219;SDS011;26951;47.338;9.196;2024-02-26T11:44:01;2.22;;;1.40;;
41219;SDS011;26951;47.338;9.196;2024-02-26T11:46:45;1.60;;;1.45;;
41219;SDS011;26951;47.338;9.196;2024-02-26T11:49:30;1.65;;;1.40;;
41219;SDS011;26951;47.338;9.196;2024-02-26T11:52:15;2.88;;;1.35;;
41219;SDS011;26951;47.338;9.196;2024-02-26T11:55:00;1.35;;;1.23;;
41219;SDS011;26951;47.338;9.196;2024-02-26T11:57:44;1.50;;;1.33;;
41219;SDS011;26951;47.338;9.196;2024-02-26T12:00:28;1.90;;;1.58;;
41219;SDS011;26951;47.338;9.196;2024-02-26T12:03:16;1.52;;;1.10;;
41219;SDS011;26951;47.338;9.196;2024-02-26T12:06:01;1.38;;;1.23;;
41219;SDS011;26951;47.338;9.196;2024-02-26T12:08:45;1.35;;;1.02;;
41219;SDS011;26951;47.338;9.196;2024-02-26T12:11:29;2.30;;;1.45;;
41219;SDS011;26951;47.338;9.196;2024-02-26T12:14:14;1.20;;;0.90;;
41219;SDS011;26951;47.338;9.196;2024-02-26T12:17:02;2.90;;;1.63;;
41219;SDS011;26951;47.338;9.196;2024-02-26T12:19:49;1.75;;;1.50;;
41219;SDS011;26951;47.338;9.196;2024-02-26T12:22:35;1.33;;;1.13;;
41219;SDS011;26951;47.338;9.196;2024-02-26T12:25:27;1.30;;;1.20;;
41219;SDS011;26951;47.338;9.196;2024-02-26T12:28:12;1.60;;;1.20;;
41219;SDS011;26951;47.338;9.196;2024-02-26T12:30:57;1.60;;;1.50;;
41219;SDS011;26951;47.338;9.196;2024-02-26T12:36:27;1.50;;;1.40;;
41219;SDS011;26951;47.338;9.196;2024-02-26T12:39:11;2.47;;;1.30;;
41219;SDS011;26951;47.338;9.196;2024-02-26T12:41:57;2.10;;;1.60;;
41219;SDS011;26951;47.338;9.196;2024-02-26T12:44:44;4.90;;;3.90;;
41219;SDS011;26951;47.338;9.196;2024-02-26T12:47:34;2.65;;;2.20;;
41219;SDS011;26951;47.338;9.196;2024-02-26T12:50:25;2.83;;;1.50;;
41219;SDS011;26951;47.338;9.196;2024-02-26T12:53:09;1.58;;;1.38;;
41219;SDS011;26951;47.338;9.196;2024-02-26T12:58:40;1.70;;;1.40;;
41219;SDS011;26951;47.338;9.196;2024-02-26T13:04:09;1.42;;;1.27;;
41219;SDS011;26951;47.338;9.196;2024-02-26T13:06:54;1.50;;;1.23;;
41219;SDS011;26951;47.338;9.196;2024-02-26T13:09:38;2.00;;;1.60;;
41219;SDS011;26951;47.338;9.196;2024-02-26T13:12:22;1.98;;;1.52;;
41219;SDS011;26951;47.338;9.196;2024-02-26T13:15:07;5.37;;;1.83;;
41219;SDS011;26951;47.338;9.196;2024-02-26T13:17:57;3.35;;;1.70;;
41219;SDS011;26951;47.338;9.196;2024-02-26T13:20:41;3.20;;;1.85;;
41219;SDS011;26951;47.338;9.196;2024-02-26T13:23:26;1.92;;;1.60;;
41219;SDS011;26951;47.338;9.196;2024-02-26T13:26:11;2.90;;;1.52;;
41219;SDS011;26951;47.338;9.196;2024-02-26T13:29:00;2.45;;;1.77;;
41219;SDS011;26951;47.338;9.196;2024-02-26T13:31:47;1.33;;;1.23;;
41219;SDS011;26951;47.338;9.196;2024-02-26T13:34:31;2.15;;;1.70;;
41219;SDS011;26951;47.338;9.196;2024-02-26T13:37:16;1.55;;;1.30;;
41219;SDS011;26951;47.338;9.196;2024-02-26T13:40:00;3.03;;;1.75;;
41219;SDS011;26951;47.338;9.196;2024-02-26T13:42:48;1.63;;;1.40;;
41219;SDS011;26951;47.338;9.196;2024-02-26T13:45:36;1.33;;;1.23;;
41219;SDS011;26951;47.338;9.196;2024-02-26T13:48:21;3.20;;;1.58;;
41219;SDS011;26951;47.338;9.196;2024-02-26T13:51:06;2.65;;;1.60;;
41219;SDS011;26951;47.338;9.196;2024-02-26T13:53:50;1.98;;;1.38;;
41219;SDS011;26951;47.338;9.196;2024-02-26T13:56:34;2.35;;;1.70;;
41219;SDS011;26951;47.338;9.196;2024-02-26T13:59:19;1.85;;;1.40;;
41219;SDS011;26951;47.338;9.196;2024-02-26T14:02:03;2.05;;;1.48;;
41219;SDS011;26951;47.338;9.196;2024-02-26T14:04:47;2.30;;;1.52;;
41219;SDS011;26951;47.338;9.196;2024-02-26T14:07:31;1.67;;;1.42;;
41219;SDS011;26951;47.338;9.196;2024-02-26T14:10:16;4.00;;;1.50;;
41219;SDS011;26951;47.338;9.196;2024-02-26T14:13:00;3.00;;;1.65;;
41219;SDS011;26951;47.338;9.196;2024-02-26T14:15:44;2.20;;;1.70;;
41219;SDS011;26951;47.338;9.196;2024-02-26T14:18:28;1.58;;;1.35;;
41219;SDS011;26951;47.338;9.196;2024-02-26T14:21:13;2.33;;;1.13;;
41219;SDS011;26951;47.338;9.196;2024-02-26T14:23:56;2.85;;;1.50;;
41219;SDS011;26951;47.338;9.196;2024-02-26T14:26:41;1.48;;;1.38;;
41219;SDS011;26951;47.338;9.196;2024-02-26T14:29:25;2.10;;;1.63;;
41219;SDS011;26951;47.338;9.196;2024-02-26T14:32:09;2.10;;;1.90;;
41219;SDS011;26951;47.338;9.196;2024-02-26T14:34:55;1.90;;;1.67;;
41219;SDS011;26951;47.338;9.196;2024-02-26T14:40:24;2.10;;;1.50;;
41219;SDS011;26951;47.338;9.196;2024-02-26T14:43:08;4.20;;;1.90;;
41219;SDS011;26951;47.338;9.196;2024-02-26T14:45:53;4.10;;;1.90;;
41219;SDS011;26951;47.338;9.196;2024-02-26T14:48:38;4.63;;;2.38;;
41219;SDS011;26951;47.338;9.196;2024-02-26T14:51:22;3.22;;;1.80;;
41219;SDS011;26951;47.338;9.196;2024-02-26T14:54:06;2.13;;;1.75;;
41219;SDS011;26951;47.338;9.196;2024-02-26T14:56:51;2.40;;;1.63;;
41219;SDS011;26951;47.338;9.196;2024-02-26T14:59:34;1.58;;;1.17;;
41219;SDS011;26951;47.338;9.196;2024-02-26T15:02:20;2.45;;;1.83;;
41219;SDS011;26951;47.338;9.196;2024-02-26T15:05:04;3.38;;;1.50;;
41219;SDS011;26951;47.338;9.196;2024-02-26T15:07:51;2.50;;;1.52;;
41219;SDS011;26951;47.338;9.196;2024-02-26T15:10:35;3.67;;;2.00;;
41219;SDS011;26951;47.338;9.196;2024-02-26T15:13:19;1.80;;;1.60;;
41219;SDS011;26951;47.338;9.196;2024-02-26T15:16:03;2.58;;;1.73;;
41219;SDS011;26951;47.338;9.196;2024-02-26T15:18:47;3.53;;;1.63;;
41219;SDS011;26951;47.338;9.196;2024-02-26T15:21:31;2.45;;;1.45;;
41219;SDS011;26951;47.338;9.196;2024-02-26T15:24:16;2.08;;;1.70;;
41219;SDS011;26951;47.338;9.196;2024-02-26T15:27:01;2.67;;;1.77;;
41219;SDS011;26951;47.338;9.196;2024-02-26T15:29:45;1.80;;;1.38;;
41219;SDS011;26951;47.338;9.196;2024-02-26T15:32:29;2.70;;;1.85;;
41219;SDS011;26951;47.338;9.196;2024-02-26T15:35:13;11.05;;;4.40;;
41219;SDS011;26951;47.338;9.196;2024-02-26T15:37:57;13.55;;;7.15;;
41219;SDS011;26951;47.338;9.196;2024-02-26T15:40:41;8.80;;;5.82;;
41219;SDS011;26951;47.338;9.196;2024-02-26T15:43:25;5.60;;;4.00;;
41219;SDS011;26951;47.338;9.196;2024-02-26T15:46:09;7.03;;;3.13;;
41219;SDS011;26951;47.338;9.196;2024-02-26T15:48:54;5.25;;;2.63;;
41219;SDS011;26951;47.338;9.196;2024-02-26T15:51:38;3.85;;;2.47;;
41219;SDS011;26951;47.338;9.196;2024-02-26T15:54:22;2.90;;;1.90;;
41219;SDS011;26951;47.338;9.196;2024-02-26T15:57:06;4.22;;;2.40;;
41219;SDS011;26951;47.338;9.196;2024-02-26T15:59:53;2.40;;;1.95;;
41219;SDS011;26951;47.338;9.196;2024-02-26T16:02:39;4.00;;;2.10;;
41219;SDS011;26951;47.338;9.196;2024-02-26T16:05:23;3.20;;;2.13;;
41219;SDS011;26951;47.338;9.196;2024-02-26T16:08:16;4.00;;;1.90;;
41219;SDS011;26951;47.338;9.196;2024-02-26T16:11:05;3.30;;;2.38;;
41219;SDS011;26951;47.338;9.196;2024-02-26T16:13:50;3.33;;;2.10;;
41219;SDS011;26951;47.338;9.196;2024-02-26T16:16:44;4.57;;;2.38;;
41219;SDS011;26951;47.338;9.196;2024-02-26T16:19:33;7.07;;;3.00;;
41219;SDS011;26951;47.338;9.196;2024-02-26T16:22:19;7.97;;;2.55;;
41219;SDS011;26951;47.338;9.196;2024-02-26T16:25:03;5.32;;;2.25;;
41219;SDS011;26951;47.338;9.196;2024-02-26T16:27:48;4.03;;;2.28;;
41219;SDS011;26951;47.338;9.196;2024-02-26T16:30:32;2.42;;;1.90;;
41219;SDS011;26951;47.338;9.196;2024-02-26T16:33:16;4.90;;;2.33;;
41219;SDS011;26951;47.338;9.196;2024-02-26T16:36:00;2.75;;;1.90;;
41219;SDS011;26951;47.338;9.196;2024-02-26T16:38:44;3.53;;;2.47;;
41219;SDS011;26951;47.338;9.196;2024-02-26T16:41:29;4.75;;;2.83;;
41219;SDS011;26951;47.338;9.196;2024-02-26T16:44:13;5.10;;;2.42;;
41219;SDS011;26951;47.338;9.196;2024-02-26T16:46:57;3.90;;;2.45;;
41219;SDS011;26951;47.338;9.196;2024-02-26T16:49:41;4.18;;;2.30;;
41219;SDS011;26951;47.338;9.196;2024-02-26T16:52:25;3.05;;;2.05;;
41219;SDS011;26951;47.338;9.196;2024-02-26T16:55:10;3.50;;;2.45;;